sensor_id;sensor_type;location;lat;lon;timestamp;P1;durP1;ratioP1;P2;durP2;ratioP2
22236;SDS011;11287;48.122;11.536;2023-12-07T00:01:01;13.63;;;9.18;;
22236;SDS011;11287;48.122;11.536;2023-12-07T00:03:26;15.27;;;8.85;;
22236;SDS011;11287;48.122;11.536;2023-12-07T00:05:51;13.40;;;8.77;;
22236;SDS011;11287;48.122;11.536;2023-12-07T00:08:17;13.52;;;9.23;;
22236;SDS011;11287;48.122;11.536;2023-12-07T00:10:42;12.88;;;8.60;;
22236;SDS011;11287;48.122;11.536;2023-12-07T00:13:07;14.95;;;9.15;;
22236;SDS011;11287;48.122;11.536;2023-12-07T00:15:33;13.35;;;8.40;;
22236;SDS011;11287;48.122;11.536;2023-12-07T00:17:59;15.60;;;8.93;;
22236;SDS011;11287;48.122;11.536;2023-12-07T00:20:25;15.30;;;9.65;;
22236;SDS011;11287;48.122;11.536;2023-12-07T00:22:51;14.88;;;9.00;;
22236;SDS011;11287;48.122;11.536;2023-12-07T00:25:16;14.13;;;8.90;;
22236;SDS011;11287;48.122;11.536;2023-12-07T00:27:42;14.85;;;9.43;;
22236;SDS011;11287;48.122;11.536;2023-12-07T00:30:07;16.80;;;9.60;;
22236;SDS011;11287;48.122;11.536;2023-12-07T00:32:33;17.40;;;9.73;;
22236;SDS011;11287;48.122;11.536;2023-12-07T00:34:59;16.23;;;9.50;;
22236;SDS011;11287;48.122;11.536;2023-12-07T00:37:24;17.95;;;10.27;;
22236;SDS011;11287;48.122;11.536;2023-12-07T00:39:50;19.77;;;10.52;;
22236;SDS011;11287;48.122;11.536;2023-12-07T00:42:15;14.73;;;9.18;;
22236;SDS011;11287;48.122;11.536;2023-12-07T00:44:40;18.88;;;9.85;;
22236;SDS011;11287;48.122;11.536;2023-12-07T00:47:06;17.42;;;10.10;;
22236;SDS011;11287;48.122;11.536;2023-12-07T00:49:32;21.00;;;10.98;;
22236;SDS011;11287;48.122;11.536;2023-12-07T00:51:57;22.38;;;11.38;;
22236;SDS011;11287;48.122;11.536;2023-12-07T00:54:23;19.92;;;11.13;;
22236;SDS011;11287;48.122;11.536;2023-12-07T00:56:48;20.55;;;10.95;;
22236;SDS011;11287;48.122;11.536;2023-12-07T00:59:13;19.48;;;10.85;;
22236;SDS011;11287;48.122;11.536;2023-12-07T01:01:39;18.73;;;10.82;;
22236;SDS011;11287;48.122;11.536;2023-12-07T01:04:05;19.83;;;10.27;;
22236;SDS011;11287;48.122;11.536;2023-12-07T01:06:30;17.83;;;10.80;;
22236;SDS011;11287;48.122;11.536;2023-12-07T01:08:56;20.23;;;10.98;;
22236;SDS011;11287;48.122;11.536;2023-12-07T01:11:21;17.42;;;10.68;;
22236;SDS011;11287;48.122;11.536;2023-12-07T01:13:46;17.27;;;10.07;;
22236;SDS011;11287;48.122;11.536;2023-12-07T01:16:12;21.30;;;11.68;;
22236;SDS011;11287;48.122;11.536;2023-12-07T01:18:37;19.42;;;11.00;;
22236;SDS011;11287;48.122;11.536;2023-12-07T01:21:02;21.70;;;11.38;;
22236;SDS011;11287;48.122;11.536;2023-12-07T01:23:28;21.50;;;11.68;;
22236;SDS011;11287;48.122;11.536;2023-12-07T01:25:53;20.40;;;12.05;;
22236;SDS011;11287;48.122;11.536;2023-12-07T01:28:18;19.30;;;10.95;;
22236;SDS011;11287;48.122;11.536;2023-12-07T01:30:44;19.92;;;10.98;;
22236;SDS011;11287;48.122;11.536;2023-12-07T01:33:09;26.65;;;12.85;;
22236;SDS011;11287;48.122;11.536;2023-12-07T01:35:34;20.40;;;11.20;;
22236;SDS011;11287;48.122;11.536;2023-12-07T01:38:00;20.45;;;11.65;;
22236;SDS011;11287;48.122;11.536;2023-12-07T01:40:25;20.75;;;11.48;;
22236;SDS011;11287;48.122;11.536;2023-12-07T01:42:51;21.77;;;11.60;;
22236;SDS011;11287;48.122;11.536;2023-12-07T01:45:17;20.38;;;11.45;;
22236;SDS011;11287;48.122;11.536;2023-12-07T01:47:42;22.70;;;11.95;;
22236;SDS011;11287;48.122;11.536;2023-12-07T01:50:08;21.75;;;11.70;;
22236;SDS011;11287;48.122;11.536;2023-12-07T01:52:35;20.98;;;12.13;;
22236;SDS011;11287;48.122;11.536;2023-12-07T01:55:03;25.17;;;13.50;;
22236;SDS011;11287;48.122;11.536;2023-12-07T01:57:30;33.28;;;16.95;;
22236;SDS011;11287;48.122;11.536;2023-12-07T01:59:55;29.45;;;14.43;;
22236;SDS011;11287;48.122;11.536;2023-12-07T02:02:21;24.88;;;12.55;;
22236;SDS011;11287;48.122;11.536;2023-12-07T02:04:46;24.73;;;12.30;;
22236;SDS011;11287;48.122;11.536;2023-12-07T02:07:11;26.25;;;13.40;;
22236;SDS011;11287;48.122;11.536;2023-12-07T02:09:37;26.50;;;12.85;;
22236;SDS011;11287;48.122;11.536;2023-12-07T02:12:02;26.63;;;12.55;;
22236;SDS011;11287;48.122;11.536;2023-12-07T02:14:28;23.17;;;12.95;;
22236;SDS011;11287;48.122;11.536;2023-12-07T02:16:55;28.75;;;13.80;;
22236;SDS011;11287;48.122;11.536;2023-12-07T02:22:32;24.50;;;12.68;;
22236;SDS011;11287;48.122;11.536;2023-12-07T02:25:11;29.30;;;13.18;;
22236;SDS011;11287;48.122;11.536;2023-12-07T02:30:12;25.30;;;13.07;;
22236;SDS011;11287;48.122;11.536;2023-12-07T02:32:38;25.17;;;12.52;;
22236;SDS011;11287;48.122;11.536;2023-12-07T02:35:06;25.15;;;12.98;;
22236;SDS011;11287;48.122;11.536;2023-12-07T02:37:34;28.05;;;13.13;;
22236;SDS011;11287;48.122;11.536;2023-12-07T02:40:02;22.98;;;12.68;;
22236;SDS011;11287;48.122;11.536;2023-12-07T02:42:29;25.55;;;13.80;;
22236;SDS011;11287;48.122;11.536;2023-12-07T02:44:56;27.98;;;13.60;;
22236;SDS011;11287;48.122;11.536;2023-12-07T02:47:21;28.17;;;13.63;;
22236;SDS011;11287;48.122;11.536;2023-12-07T02:49:46;26.83;;;12.90;;
22236;SDS011;11287;48.122;11.536;2023-12-07T02:52:12;25.80;;;12.55;;
22236;SDS011;11287;48.122;11.536;2023-12-07T02:54:37;22.88;;;12.93;;
22236;SDS011;11287;48.122;11.536;2023-12-07T02:57:02;24.85;;;13.25;;
22236;SDS011;11287;48.122;11.536;2023-12-07T02:59:28;26.60;;;13.35;;
22236;SDS011;11287;48.122;11.536;2023-12-07T03:01:53;24.90;;;13.13;;
22236;SDS011;11287;48.122;11.536;2023-12-07T03:04:18;26.63;;;13.15;;
22236;SDS011;11287;48.122;11.536;2023-12-07T03:06:43;28.98;;;12.93;;
22236;SDS011;11287;48.122;11.536;2023-12-07T03:09:09;28.55;;;13.30;;
22236;SDS011;11287;48.122;11.536;2023-12-07T03:11:34;21.45;;;11.60;;
22236;SDS011;11287;48.122;11.536;2023-12-07T03:13:59;25.05;;;12.48;;
22236;SDS011;11287;48.122;11.536;2023-12-07T03:16:25;27.38;;;13.45;;
22236;SDS011;11287;48.122;11.536;2023-12-07T03:18:50;27.33;;;13.85;;
22236;SDS011;11287;48.122;11.536;2023-12-07T03:21:16;27.98;;;14.23;;
22236;SDS011;11287;48.122;11.536;2023-12-07T03:23:41;28.30;;;13.90;;
22236;SDS011;11287;48.122;11.536;2023-12-07T03:26:06;27.10;;;14.40;;
22236;SDS011;11287;48.122;11.536;2023-12-07T03:28:32;27.75;;;12.65;;
22236;SDS011;11287;48.122;11.536;2023-12-07T03:30:57;30.05;;;12.88;;
22236;SDS011;11287;48.122;11.536;2023-12-07T03:33:22;27.48;;;13.68;;
22236;SDS011;11287;48.122;11.536;2023-12-07T03:35:48;28.77;;;12.95;;
22236;SDS011;11287;48.122;11.536;2023-12-07T03:38:14;29.27;;;13.65;;
22236;SDS011;11287;48.122;11.536;2023-12-07T03:40:39;26.20;;;13.30;;
22236;SDS011;11287;48.122;11.536;2023-12-07T03:43:05;29.65;;;12.50;;
22236;SDS011;11287;48.122;11.536;2023-12-07T03:45:30;26.00;;;12.43;;
22236;SDS011;11287;48.122;11.536;2023-12-07T03:47:55;25.25;;;12.88;;
22236;SDS011;11287;48.122;11.536;2023-12-07T03:50:20;26.63;;;12.20;;
22236;SDS011;11287;48.122;11.536;2023-12-07T03:52:46;27.48;;;13.50;;
22236;SDS011;11287;48.122;11.536;2023-12-07T03:55:11;20.95;;;11.82;;
22236;SDS011;11287;48.122;11.536;2023-12-07T03:57:36;26.20;;;12.90;;
22236;SDS011;11287;48.122;11.536;2023-12-07T04:00:02;27.73;;;12.60;;
22236;SDS011;11287;48.122;11.536;2023-12-07T04:02:29;24.83;;;13.25;;
22236;SDS011;11287;48.122;11.536;2023-12-07T04:04:57;23.75;;;11.65;;
22236;SDS011;11287;48.122;11.536;2023-12-07T04:07:26;23.77;;;12.50;;
22236;SDS011;11287;48.122;11.536;2023-12-07T04:09:52;21.15;;;10.98;;
22236;SDS011;11287;48.122;11.536;2023-12-07T04:12:17;21.95;;;11.98;;
22236;SDS011;11287;48.122;11.536;2023-12-07T04:14:42;22.20;;;11.32;;
22236;SDS011;11287;48.122;11.536;2023-12-07T04:17:08;22.45;;;11.05;;
22236;SDS011;11287;48.122;11.536;2023-12-07T04:19:33;21.58;;;11.43;;
22236;SDS011;11287;48.122;11.536;2023-12-07T04:21:58;23.95;;;11.55;;
22236;SDS011;11287;48.122;11.536;2023-12-07T04:24:23;21.52;;;11.23;;
22236;SDS011;11287;48.122;11.536;2023-12-07T04:26:49;19.58;;;10.70;;
22236;SDS011;11287;48.122;11.536;2023-12-07T04:29:14;24.98;;;11.23;;
22236;SDS011;11287;48.122;11.536;2023-12-07T04:31:40;20.08;;;10.65;;
22236;SDS011;11287;48.122;11.536;2023-12-07T04:34:05;28.70;;;15.05;;
22236;SDS011;11287;48.122;11.536;2023-12-07T04:36:30;21.38;;;11.90;;
22236;SDS011;11287;48.122;11.536;2023-12-07T04:38:56;22.00;;;11.07;;
22236;SDS011;11287;48.122;11.536;2023-12-07T04:41:21;22.88;;;11.80;;
22236;SDS011;11287;48.122;11.536;2023-12-07T04:43:47;24.63;;;11.15;;
22236;SDS011;11287;48.122;11.536;2023-12-07T04:46:12;21.75;;;11.75;;
22236;SDS011;11287;48.122;11.536;2023-12-07T04:48:37;21.90;;;10.73;;
22236;SDS011;11287;48.122;11.536;2023-12-07T04:51:02;20.67;;;11.63;;
22236;SDS011;11287;48.122;11.536;2023-12-07T04:53:28;23.70;;;11.77;;
22236;SDS011;11287;48.122;11.536;2023-12-07T04:55:54;23.42;;;10.48;;
22236;SDS011;11287;48.122;11.536;2023-12-07T04:58:19;19.63;;;10.73;;
22236;SDS011;11287;48.122;11.536;2023-12-07T05:00:44;23.00;;;11.55;;
22236;SDS011;11287;48.122;11.536;2023-12-07T05:03:09;22.25;;;10.93;;
22236;SDS011;11287;48.122;11.536;2023-12-07T05:05:35;20.67;;;10.80;;
22236;SDS011;11287;48.122;11.536;2023-12-07T05:08:01;17.88;;;10.13;;
22236;SDS011;11287;48.122;11.536;2023-12-07T05:10:26;19.08;;;10.75;;
22236;SDS011;11287;48.122;11.536;2023-12-07T05:12:51;20.80;;;10.45;;
22236;SDS011;11287;48.122;11.536;2023-12-07T05:15:17;18.33;;;9.38;;
22236;SDS011;11287;48.122;11.536;2023-12-07T05:17:42;18.20;;;9.02;;
22236;SDS011;11287;48.122;11.536;2023-12-07T05:20:08;19.80;;;9.65;;
22236;SDS011;11287;48.122;11.536;2023-12-07T05:22:33;14.90;;;8.75;;
22236;SDS011;11287;48.122;11.536;2023-12-07T05:24:59;15.60;;;8.63;;
22236;SDS011;11287;48.122;11.536;2023-12-07T05:27:24;15.13;;;8.48;;
22236;SDS011;11287;48.122;11.536;2023-12-07T05:29:49;17.70;;;9.27;;
22236;SDS011;11287;48.122;11.536;2023-12-07T05:32:14;14.18;;;8.48;;
22236;SDS011;11287;48.122;11.536;2023-12-07T05:34:40;15.85;;;9.25;;
22236;SDS011;11287;48.122;11.536;2023-12-07T05:37:06;18.27;;;9.55;;
22236;SDS011;11287;48.122;11.536;2023-12-07T05:39:31;14.05;;;8.35;;
22236;SDS011;11287;48.122;11.536;2023-12-07T05:41:56;15.13;;;8.25;;
22236;SDS011;11287;48.122;11.536;2023-12-07T05:44:22;13.95;;;8.30;;
22236;SDS011;11287;48.122;11.536;2023-12-07T05:46:47;14.90;;;8.65;;
22236;SDS011;11287;48.122;11.536;2023-12-07T05:49:13;15.35;;;8.48;;
22236;SDS011;11287;48.122;11.536;2023-12-07T05:51:38;14.57;;;8.07;;
22236;SDS011;11287;48.122;11.536;2023-12-07T05:54:04;13.38;;;8.38;;
22236;SDS011;11287;48.122;11.536;2023-12-07T05:56:30;14.50;;;8.07;;
22236;SDS011;11287;48.122;11.536;2023-12-07T05:58:56;14.95;;;7.53;;
22236;SDS011;11287;48.122;11.536;2023-12-07T06:01:21;13.93;;;8.05;;
22236;SDS011;11287;48.122;11.536;2023-12-07T06:03:47;15.82;;;8.68;;
22236;SDS011;11287;48.122;11.536;2023-12-07T06:06:12;14.98;;;8.40;;
22236;SDS011;11287;48.122;11.536;2023-12-07T06:08:38;14.50;;;8.65;;
22236;SDS011;11287;48.122;11.536;2023-12-07T06:11:03;15.63;;;8.23;;
22236;SDS011;11287;48.122;11.536;2023-12-07T06:13:28;21.45;;;8.93;;
22236;SDS011;11287;48.122;11.536;2023-12-07T06:15:53;12.85;;;8.13;;
22236;SDS011;11287;48.122;11.536;2023-12-07T06:18:19;15.27;;;8.90;;
22236;SDS011;11287;48.122;11.536;2023-12-07T06:20:44;15.40;;;8.82;;
22236;SDS011;11287;48.122;11.536;2023-12-07T06:23:10;17.40;;;9.13;;
22236;SDS011;11287;48.122;11.536;2023-12-07T06:25:38;19.48;;;8.23;;
22236;SDS011;11287;48.122;11.536;2023-12-07T06:28:04;17.65;;;8.90;;
22236;SDS011;11287;48.122;11.536;2023-12-07T06:30:29;15.23;;;8.25;;
22236;SDS011;11287;48.122;11.536;2023-12-07T06:32:55;17.05;;;8.98;;
22236;SDS011;11287;48.122;11.536;2023-12-07T06:35:20;18.42;;;9.10;;
22236;SDS011;11287;48.122;11.536;2023-12-07T06:37:45;16.17;;;8.15;;
22236;SDS011;11287;48.122;11.536;2023-12-07T06:40:11;17.17;;;9.45;;
22236;SDS011;11287;48.122;11.536;2023-12-07T06:42:36;22.92;;;10.13;;
22236;SDS011;11287;48.122;11.536;2023-12-07T06:45:03;18.05;;;9.02;;
22236;SDS011;11287;48.122;11.536;2023-12-07T06:47:28;17.30;;;8.90;;
22236;SDS011;11287;48.122;11.536;2023-12-07T06:49:54;20.33;;;9.20;;
22236;SDS011;11287;48.122;11.536;2023-12-07T06:52:20;16.30;;;8.85;;
22236;SDS011;11287;48.122;11.536;2023-12-07T06:54:46;16.27;;;8.77;;
22236;SDS011;11287;48.122;11.536;2023-12-07T06:57:11;19.83;;;8.88;;
22236;SDS011;11287;48.122;11.536;2023-12-07T06:59:37;17.88;;;9.07;;
22236;SDS011;11287;48.122;11.536;2023-12-07T07:02:03;18.70;;;9.63;;
22236;SDS011;11287;48.122;11.536;2023-12-07T07:04:28;16.63;;;8.80;;
22236;SDS011;11287;48.122;11.536;2023-12-07T07:06:54;15.90;;;8.55;;
22236;SDS011;11287;48.122;11.536;2023-12-07T07:09:20;17.05;;;9.63;;
22236;SDS011;11287;48.122;11.536;2023-12-07T07:11:48;30.42;;;9.77;;
22236;SDS011;11287;48.122;11.536;2023-12-07T07:14:14;31.10;;;10.30;;
22236;SDS011;11287;48.122;11.536;2023-12-07T07:16:39;21.10;;;11.80;;
22236;SDS011;11287;48.122;11.536;2023-12-07T07:19:05;30.27;;;13.65;;
22236;SDS011;11287;48.122;11.536;2023-12-07T07:21:30;23.60;;;14.10;;
22236;SDS011;11287;48.122;11.536;2023-12-07T07:23:56;31.30;;;16.42;;
22236;SDS011;11287;48.122;11.536;2023-12-07T07:26:21;32.67;;;17.88;;
22236;SDS011;11287;48.122;11.536;2023-12-07T07:28:47;30.35;;;16.88;;
22236;SDS011;11287;48.122;11.536;2023-12-07T07:31:12;35.38;;;18.58;;
22236;SDS011;11287;48.122;11.536;2023-12-07T07:33:38;35.80;;;17.88;;
22236;SDS011;11287;48.122;11.536;2023-12-07T07:36:03;22.98;;;12.70;;
22236;SDS011;11287;48.122;11.536;2023-12-07T07:38:28;28.23;;;14.90;;
22236;SDS011;11287;48.122;11.536;2023-12-07T07:40:54;55.85;;;21.98;;
22236;SDS011;11287;48.122;11.536;2023-12-07T07:43:19;42.38;;;19.67;;
22236;SDS011;11287;48.122;11.536;2023-12-07T07:45:44;50.95;;;21.17;;
22236;SDS011;11287;48.122;11.536;2023-12-07T07:48:10;53.97;;;24.50;;
22236;SDS011;11287;48.122;11.536;2023-12-07T07:50:37;73.50;;;29.95;;
22236;SDS011;11287;48.122;11.536;2023-12-07T07:53:02;62.10;;;25.27;;
22236;SDS011;11287;48.122;11.536;2023-12-07T07:55:28;39.80;;;18.88;;
22236;SDS011;11287;48.122;11.536;2023-12-07T07:57:54;35.00;;;18.23;;
22236;SDS011;11287;48.122;11.536;2023-12-07T08:00:19;45.00;;;21.05;;
22236;SDS011;11287;48.122;11.536;2023-12-07T08:02:45;45.75;;;20.35;;
22236;SDS011;11287;48.122;11.536;2023-12-07T08:05:11;47.38;;;19.98;;
22236;SDS011;11287;48.122;11.536;2023-12-07T08:07:36;38.45;;;16.02;;
22236;SDS011;11287;48.122;11.536;2023-12-07T08:10:01;31.17;;;14.73;;
22236;SDS011;11287;48.122;11.536;2023-12-07T08:12:28;29.77;;;15.32;;
22236;SDS011;11287;48.122;11.536;2023-12-07T08:14:53;26.10;;;13.93;;
22236;SDS011;11287;48.122;11.536;2023-12-07T08:17:19;28.58;;;14.27;;
22236;SDS011;11287;48.122;11.536;2023-12-07T08:19:44;20.98;;;11.27;;
22236;SDS011;11287;48.122;11.536;2023-12-07T08:22:10;18.48;;;10.52;;
22236;SDS011;11287;48.122;11.536;2023-12-07T08:24:35;14.55;;;8.80;;
22236;SDS011;11287;48.122;11.536;2023-12-07T08:27:02;17.88;;;8.85;;
22236;SDS011;11287;48.122;11.536;2023-12-07T08:29:28;18.95;;;9.63;;
22236;SDS011;11287;48.122;11.536;2023-12-07T08:31:54;17.55;;;9.57;;
22236;SDS011;11287;48.122;11.536;2023-12-07T08:34:19;16.10;;;8.45;;
22236;SDS011;11287;48.122;11.536;2023-12-07T08:36:45;14.85;;;8.70;;
22236;SDS011;11287;48.122;11.536;2023-12-07T08:39:10;17.15;;;9.45;;
22236;SDS011;11287;48.122;11.536;2023-12-07T08:41:36;14.68;;;8.38;;
22236;SDS011;11287;48.122;11.536;2023-12-07T08:44:01;13.77;;;8.05;;
22236;SDS011;11287;48.122;11.536;2023-12-07T08:46:27;13.98;;;7.68;;
22236;SDS011;11287;48.122;11.536;2023-12-07T08:48:52;13.10;;;7.57;;
22236;SDS011;11287;48.122;11.536;2023-12-07T08:51:18;13.65;;;7.80;;
22236;SDS011;11287;48.122;11.536;2023-12-07T08:53:44;12.02;;;6.80;;
22236;SDS011;11287;48.122;11.536;2023-12-07T08:56:09;11.70;;;7.75;;
22236;SDS011;11287;48.122;11.536;2023-12-07T08:58:35;13.18;;;7.32;;
22236;SDS011;11287;48.122;11.536;2023-12-07T09:01:00;11.85;;;7.25;;
22236;SDS011;11287;48.122;11.536;2023-12-07T09:03:26;11.32;;;6.95;;
22236;SDS011;11287;48.122;11.536;2023-12-07T09:05:56;13.00;;;6.15;;
22236;SDS011;11287;48.122;11.536;2023-12-07T09:08:22;10.90;;;7.05;;
22236;SDS011;11287;48.122;11.536;2023-12-07T09:10:47;8.07;;;5.90;;
22236;SDS011;11287;48.122;11.536;2023-12-07T09:13:14;9.90;;;6.43;;
22236;SDS011;11287;48.122;11.536;2023-12-07T09:15:40;10.45;;;6.00;;
22236;SDS011;11287;48.122;11.536;2023-12-07T09:21:27;8.80;;;5.55;;
22236;SDS011;11287;48.122;11.536;2023-12-07T09:23:52;9.00;;;5.28;;
22236;SDS011;11287;48.122;11.536;2023-12-07T09:26:17;7.47;;;4.72;;
22236;SDS011;11287;48.122;11.536;2023-12-07T09:28:43;7.93;;;5.00;;
22236;SDS011;11287;48.122;11.536;2023-12-07T09:31:08;5.40;;;3.97;;
22236;SDS011;11287;48.122;11.536;2023-12-07T09:33:33;5.95;;;4.30;;
22236;SDS011;11287;48.122;11.536;2023-12-07T09:35:59;7.22;;;3.80;;
22236;SDS011;11287;48.122;11.536;2023-12-07T09:38:24;10.25;;;4.28;;
22236;SDS011;11287;48.122;11.536;2023-12-07T09:40:53;6.18;;;3.30;;
22236;SDS011;11287;48.122;11.536;2023-12-07T09:43:18;5.95;;;3.35;;
22236;SDS011;11287;48.122;11.536;2023-12-07T09:45:44;3.28;;;2.33;;
22236;SDS011;11287;48.122;11.536;2023-12-07T09:48:09;5.10;;;2.38;;
22236;SDS011;11287;48.122;11.536;2023-12-07T09:50:34;2.08;;;1.80;;
22236;SDS011;11287;48.122;11.536;2023-12-07T09:53:00;4.07;;;2.30;;
22236;SDS011;11287;48.122;11.536;2023-12-07T09:55:26;4.07;;;2.10;;
22236;SDS011;11287;48.122;11.536;2023-12-07T09:57:51;2.60;;;2.03;;
22236;SDS011;11287;48.122;11.536;2023-12-07T10:00:19;1.48;;;1.35;;
22236;SDS011;11287;48.122;11.536;2023-12-07T10:02:45;2.75;;;1.80;;
22236;SDS011;11287;48.122;11.536;2023-12-07T10:05:14;4.75;;;1.90;;
22236;SDS011;11287;48.122;11.536;2023-12-07T10:07:41;1.67;;;1.58;;
22236;SDS011;11287;48.122;11.536;2023-12-07T10:10:11;2.03;;;1.38;;
22236;SDS011;11287;48.122;11.536;2023-12-07T10:12:40;1.80;;;1.60;;
22236;SDS011;11287;48.122;11.536;2023-12-07T10:15:11;2.25;;;1.58;;
22236;SDS011;11287;48.122;11.536;2023-12-07T10:20:23;4.20;;;2.10;;
22236;SDS011;11287;48.122;11.536;2023-12-07T10:23:10;3.38;;;1.80;;
22236;SDS011;11287;48.122;11.536;2023-12-07T10:25:38;4.65;;;2.50;;
22236;SDS011;11287;48.122;11.536;2023-12-07T10:28:04;4.88;;;2.58;;
22236;SDS011;11287;48.122;11.536;2023-12-07T10:30:32;2.38;;;2.10;;
22236;SDS011;11287;48.122;11.536;2023-12-07T10:32:58;2.67;;;2.17;;
22236;SDS011;11287;48.122;11.536;2023-12-07T10:35:23;2.55;;;2.30;;
22236;SDS011;11287;48.122;11.536;2023-12-07T10:37:49;2.28;;;1.90;;
22236;SDS011;11287;48.122;11.536;2023-12-07T10:40:15;3.08;;;2.10;;
22236;SDS011;11287;48.122;11.536;2023-12-07T10:42:40;2.65;;;1.90;;
22236;SDS011;11287;48.122;11.536;2023-12-07T10:45:07;2.13;;;1.85;;
22236;SDS011;11287;48.122;11.536;2023-12-07T10:47:35;2.25;;;1.73;;
22236;SDS011;11287;48.122;11.536;2023-12-07T10:50:02;3.15;;;2.10;;
22236;SDS011;11287;48.122;11.536;2023-12-07T10:52:31;2.58;;;1.90;;
22236;SDS011;11287;48.122;11.536;2023-12-07T10:55:07;1.88;;;1.70;;
22236;SDS011;11287;48.122;11.536;2023-12-07T10:57:33;2.75;;;1.75;;
22236;SDS011;11287;48.122;11.536;2023-12-07T11:00:00;2.33;;;1.73;;
22236;SDS011;11287;48.122;11.536;2023-12-07T11:02:26;1.98;;;1.67;;
22236;SDS011;11287;48.122;11.536;2023-12-07T11:04:54;2.25;;;1.63;;
22236;SDS011;11287;48.122;11.536;2023-12-07T11:07:21;3.10;;;2.00;;
22236;SDS011;11287;48.122;11.536;2023-12-07T11:09:48;2.55;;;1.73;;
22236;SDS011;11287;48.122;11.536;2023-12-07T11:12:30;2.75;;;1.85;;
22236;SDS011;11287;48.122;11.536;2023-12-07T11:15:00;4.05;;;2.40;;
22236;SDS011;11287;48.122;11.536;2023-12-07T11:17:26;2.28;;;1.55;;
22236;SDS011;11287;48.122;11.536;2023-12-07T11:19:52;1.95;;;1.50;;
22236;SDS011;11287;48.122;11.536;2023-12-07T11:22:17;2.28;;;1.42;;
22236;SDS011;11287;48.122;11.536;2023-12-07T11:24:56;2.88;;;1.50;;
22236;SDS011;11287;48.122;11.536;2023-12-07T11:27:24;2.03;;;1.70;;
22236;SDS011;11287;48.122;11.536;2023-12-07T11:29:50;2.60;;;1.35;;
22236;SDS011;11287;48.122;11.536;2023-12-07T11:32:15;1.70;;;1.48;;
22236;SDS011;11287;48.122;11.536;2023-12-07T11:34:42;3.08;;;1.80;;
22236;SDS011;11287;48.122;11.536;2023-12-07T11:37:09;1.67;;;1.20;;
22236;SDS011;11287;48.122;11.536;2023-12-07T11:39:39;3.15;;;1.60;;
22236;SDS011;11287;48.122;11.536;2023-12-07T11:42:10;2.25;;;1.73;;
22236;SDS011;11287;48.122;11.536;2023-12-07T11:44:43;3.40;;;1.43;;
22236;SDS011;11287;48.122;11.536;2023-12-07T11:47:15;2.42;;;1.70;;
22236;SDS011;11287;48.122;11.536;2023-12-07T11:49:41;1.40;;;1.30;;
22236;SDS011;11287;48.122;11.536;2023-12-07T11:52:18;2.03;;;1.60;;
22236;SDS011;11287;48.122;11.536;2023-12-07T11:54:47;1.77;;;1.50;;
22236;SDS011;11287;48.122;11.536;2023-12-07T11:57:14;1.30;;;1.15;;
22236;SDS011;11287;48.122;11.536;2023-12-07T11:59:40;2.08;;;1.38;;
22236;SDS011;11287;48.122;11.536;2023-12-07T12:02:05;2.05;;;1.25;;
22236;SDS011;11287;48.122;11.536;2023-12-07T12:04:30;1.50;;;1.40;;
22236;SDS011;11287;48.122;11.536;2023-12-07T12:06:56;3.17;;;1.60;;
22236;SDS011;11287;48.122;11.536;2023-12-07T12:09:22;2.58;;;1.88;;
22236;SDS011;11287;48.122;11.536;2023-12-07T12:11:49;2.15;;;1.65;;
22236;SDS011;11287;48.122;11.536;2023-12-07T12:14:14;2.10;;;1.60;;
22236;SDS011;11287;48.122;11.536;2023-12-07T12:16:41;1.90;;;1.55;;
22236;SDS011;11287;48.122;11.536;2023-12-07T12:19:06;3.00;;;1.70;;
22236;SDS011;11287;48.122;11.536;2023-12-07T12:21:35;3.03;;;1.75;;
22236;SDS011;11287;48.122;11.536;2023-12-07T12:24:03;2.55;;;1.95;;
22236;SDS011;11287;48.122;11.536;2023-12-07T12:26:29;2.67;;;2.00;;
22236;SDS011;11287;48.122;11.536;2023-12-07T12:28:55;2.33;;;1.73;;
22236;SDS011;11287;48.122;11.536;2023-12-07T12:31:20;4.05;;;2.17;;
22236;SDS011;11287;48.122;11.536;2023-12-07T12:33:48;2.13;;;1.63;;
22236;SDS011;11287;48.122;11.536;2023-12-07T12:36:14;2.83;;;1.73;;
22236;SDS011;11287;48.122;11.536;2023-12-07T12:38:41;2.22;;;1.83;;
22236;SDS011;11287;48.122;11.536;2023-12-07T12:41:06;2.72;;;1.88;;
22236;SDS011;11287;48.122;11.536;2023-12-07T12:43:33;2.33;;;2.00;;
22236;SDS011;11287;48.122;11.536;2023-12-07T12:45:59;2.92;;;1.85;;
22236;SDS011;11287;48.122;11.536;2023-12-07T12:48:24;3.05;;;1.90;;
22236;SDS011;11287;48.122;11.536;2023-12-07T12:50:49;3.85;;;1.92;;
22236;SDS011;11287;48.122;11.536;2023-12-07T12:53:15;2.15;;;1.85;;
22236;SDS011;11287;48.122;11.536;2023-12-07T12:55:41;3.10;;;1.92;;
22236;SDS011;11287;48.122;11.536;2023-12-07T12:58:07;4.88;;;1.45;;
22236;SDS011;11287;48.122;11.536;2023-12-07T13:00:33;3.08;;;2.05;;
22236;SDS011;11287;48.122;11.536;2023-12-07T13:02:59;2.80;;;1.80;;
22236;SDS011;11287;48.122;11.536;2023-12-07T13:05:28;5.70;;;1.77;;
22236;SDS011;11287;48.122;11.536;2023-12-07T13:07:53;2.00;;;1.67;;
22236;SDS011;11287;48.122;11.536;2023-12-07T13:10:19;1.50;;;1.40;;
22236;SDS011;11287;48.122;11.536;2023-12-07T13:12:45;1.70;;;1.58;;
22236;SDS011;11287;48.122;11.536;2023-12-07T13:15:11;3.10;;;1.83;;
22236;SDS011;11287;48.122;11.536;2023-12-07T13:17:37;3.20;;;1.60;;
22236;SDS011;11287;48.122;11.536;2023-12-07T13:20:03;4.85;;;1.70;;
22236;SDS011;11287;48.122;11.536;2023-12-07T13:22:31;4.18;;;2.00;;
22236;SDS011;11287;48.122;11.536;2023-12-07T13:24:57;1.92;;;1.83;;
22236;SDS011;11287;48.122;11.536;2023-12-07T13:27:22;2.00;;;1.77;;
22236;SDS011;11287;48.122;11.536;2023-12-07T13:29:48;2.05;;;1.65;;
22236;SDS011;11287;48.122;11.536;2023-12-07T13:32:14;3.67;;;2.20;;
22236;SDS011;11287;48.122;11.536;2023-12-07T13:34:40;2.85;;;1.70;;
22236;SDS011;11287;48.122;11.536;2023-12-07T13:37:05;3.05;;;2.17;;
22236;SDS011;11287;48.122;11.536;2023-12-07T13:39:31;5.32;;;1.98;;
22236;SDS011;11287;48.122;11.536;2023-12-07T13:41:56;2.20;;;1.85;;
22236;SDS011;11287;48.122;11.536;2023-12-07T13:44:22;2.42;;;1.98;;
22236;SDS011;11287;48.122;11.536;2023-12-07T13:46:49;7.25;;;2.67;;
22236;SDS011;11287;48.122;11.536;2023-12-07T13:49:14;4.88;;;1.98;;
22236;SDS011;11287;48.122;11.536;2023-12-07T13:51:40;3.50;;;2.00;;
22236;SDS011;11287;48.122;11.536;2023-12-07T13:54:06;1.80;;;1.60;;
22236;SDS011;11287;48.122;11.536;2023-12-07T13:56:32;2.92;;;1.83;;
22236;SDS011;11287;48.122;11.536;2023-12-07T13:58:58;1.70;;;1.60;;
22236;SDS011;11287;48.122;11.536;2023-12-07T14:01:27;3.17;;;1.90;;
22236;SDS011;11287;48.122;11.536;2023-12-07T14:03:52;2.60;;;1.77;;
22236;SDS011;11287;48.122;11.536;2023-12-07T14:06:21;2.13;;;1.50;;
22236;SDS011;11287;48.122;11.536;2023-12-07T14:08:48;2.65;;;1.60;;
22236;SDS011;11287;48.122;11.536;2023-12-07T14:11:14;2.10;;;1.67;;
22236;SDS011;11287;48.122;11.536;2023-12-07T14:13:39;2.78;;;1.85;;
22236;SDS011;11287;48.122;11.536;2023-12-07T14:16:05;3.33;;;1.88;;
22236;SDS011;11287;48.122;11.536;2023-12-07T14:18:30;9.13;;;2.47;;
22236;SDS011;11287;48.122;11.536;2023-12-07T14:20:55;2.17;;;1.95;;
22236;SDS011;11287;48.122;11.536;2023-12-07T14:23:21;2.15;;;1.77;;
22236;SDS011;11287;48.122;11.536;2023-12-07T14:25:47;2.60;;;2.00;;